Time;durP1;ratioP1;P1;durP2;ratioP2;P2;SDS_P1;SDS_P2;PMS_P1;PMS_P2;Temp;Humidity;BMP_temperature;BMP_pressure;BME280_temperature;BME280_humidity;BME280_pressure;Samples;Min_cycle;Max_cycle;Signal;HPM_P1;HPM_P2
2021/06/28 00:28:23;;;;;;;;;;;17.90;99.90;;;19.63;100.00;100425.78;6181503;23;19916;-88
2021/06/28 00:30:50;;;;;;;;;;;18.00;99.90;;;19.62;100.00;100421.34;6170504;23;19908;-88
2021/06/28 00:33:19;;;;;;;;;;;18.10;99.90;;;19.60;99.82;100418.13;6205053;23;19948;-89
2021/06/28 00:35:46;;;;;;;;;;;18.10;99.90;;;19.63;99.98;100411.63;6173430;23;19958;-89
2021/06/28 00:38:13;;;;;;;;;;;18.10;99.90;;;19.64;99.54;100409.59;6193615;23;19908;-89
2021/06/28 00:40:41;;;;;;;;;;;18.10;99.90;;;19.68;99.06;100396.19;6166627;23;19904;-90
2021/06/28 00:43:09;;;;;;;;;;;18.10;99.90;;;19.68;98.82;100402.63;6168532;23;20025;-90
2021/06/28 00:45:42;;;;;;;;;;;18.10;99.90;;;19.63;98.58;100396.63;6167668;23;19935;-90
2021/06/28 00:48:12;;;;;;;;;;;18.10;99.90;;;19.54;98.46;100385.03;6193085;23;19960;-91
2021/06/28 00:50:43;;;;;;;;;;;18.10;99.90;;;19.56;97.63;100391.06;6195443;23;19935;-89
2021/06/28 00:53:12;;;;;;;;;;;18.00;99.90;;;19.54;98.02;100393.53;6194903;23;19911;-92
2021/06/28 00:55:41;;;;;;;;;;;18.00;99.90;;;19.50;97.94;100392.78;6194526;23;19912;-89
2021/06/28 00:58:09;;;;;;;;;;;18.00;99.90;;;19.52;97.62;100382.66;6169694;23;19931;-90
2021/06/28 01:00:36;;;;;;;;;;;18.00;99.90;;;19.52;97.82;100391.13;6169801;23;19947;-91
2021/06/28 01:03:05;;;;;;;;;;;17.90;99.90;;;19.48;98.13;100381.88;6192927;23;19904;-92
2021/06/28 01:05:35;;;;;;;;;;;17.90;99.90;;;19.46;98.38;100390.78;6167796;23;20361;-89
2021/06/28 01:08:04;;;;;;;;;;;17.90;99.90;;;19.42;97.83;100375.88;6166858;23;19908;-90
2021/06/28 01:10:30;;;;;;;;;;;17.90;99.90;;;19.40;98.04;100375.50;6192855;23;19938;-90
2021/06/28 01:12:57;;;;;;;;;;;17.80;99.90;;;19.39;97.87;100376.69;6166094;23;19904;-89
2021/06/28 01:15:24;;;;;;;;;;;17.90;99.90;;;19.34;97.98;100371.50;6166685;23;19979;-90
2021/06/28 01:17:51;;;;;;;;;;;17.90;99.90;;;19.33;98.27;100363.41;6167195;23;20281;-91
2021/06/28 01:20:23;;;;;;;;;;;17.80;99.90;;;19.30;98.07;100362.25;6167191;23;20297;-90
2021/06/28 01:22:53;;;;;;;;;;;17.80;99.90;;;19.32;98.17;100368.31;6193365;23;19904;-89
2021/06/28 01:25:25;;;;;;;;;;;17.70;99.90;;;19.27;98.48;100371.59;6192696;23;19927;-90
2021/06/28 01:27:52;;;;;;;;;;;17.80;99.90;;;19.30;97.88;100367.09;6193194;23;20227;-91
2021/06/28 01:30:27;;;;;;;;;;;17.80;99.90;;;19.30;98.23;100372.75;6204532;23;19935;-91
2021/06/28 01:32:53;;;;;;;;;;;17.70;99.90;;;19.26;98.23;100377.69;6178088;23;19935;-90
2021/06/28 01:35:19;;;;;;;;;;;17.70;99.90;;;19.17;99.44;100378.19;6178156;23;20372;-90
2021/06/28 01:37:46;;;;;;;;;;;17.60;99.90;;;19.11;99.48;100376.25;6171106;23;19982;-90
2021/06/28 01:40:15;;;;;;;;;;;17.70;99.90;;;19.10;99.40;100375.47;6165264;23;19904;-91
2021/06/28 01:42:45;;;;;;;;;;;17.60;99.90;;;19.07;99.46;100370.63;6189775;23;19932;-91
2021/06/28 01:45:21;;;;;;;;;;;17.60;99.90;;;19.01;99.72;100377.19;6189866;23;19920;-91
2021/06/28 01:47:49;;;;;;;;;;;17.50;99.90;;;18.85;99.53;100370.06;6190868;23;19904;-90
2021/06/28 01:50:18;;;;;;;;;;;17.40;99.90;;;18.75;99.96;100379.47;6166006;23;19932;-89
2021/06/28 01:52:45;;;;;;;;;;;17.30;99.90;;;18.65;100.00;100380.41;6191626;23;19975;-89
2021/06/28 01:55:16;;;;;;;;;;;17.20;99.90;;;18.64;100.00;100377.97;6166897;23;19908;-90
2021/06/28 01:58:02;;;;;;;;;;;17.10;99.90;;;18.57;100.00;100363.91;6190908;23;20338;-91
2021/06/28 02:00:37;;;;;;;;;;;17.10;99.90;;;18.54;100.00;100364.75;6191101;23;19934;-90
2021/06/28 02:03:12;;;;;;;;;;;17.00;99.90;;;18.59;100.00;100372.78;6194273;23;19928;-90
2021/06/28 02:05:45;;;;;;;;;;;17.00;99.90;;;18.59;100.00;100361.47;6168953;23;19908;-90
2021/06/28 02:08:14;;;;;;;;;;;17.00;99.90;;;18.60;100.00;100360.25;6194357;23;19947;-89
2021/06/28 02:10:46;;;;;;;;;;;17.10;99.90;;;18.61;100.00;100359.03;6181294;23;19920;-90
2021/06/28 02:13:12;;;;;;;;;;;17.10;99.90;;;18.53;100.00;100365.97;6178391;23;19912;-91
2021/06/28 02:15:39;;;;;;;;;;;17.00;99.90;;;18.50;100.00;100358.31;6192197;23;19919;-91
2021/06/28 02:18:06;;;;;;;;;;;17.00;99.90;;;18.48;100.00;100360.75;6166694;23;19915;-91
2021/06/28 02:20:32;;;;;;;;;;;17.00;99.90;;;18.42;100.00;100366.84;6168435;23;19915;-91
2021/06/28 02:23:33;;;;;;;;;;;17.00;99.90;;;18.43;100.00;100373.28;6171268;23;19955;-91
2021/06/28 02:26:04;;;;;;;;;;;16.90;99.90;;;18.42;100.00;100374.53;6174406;23;19935;-90
2021/06/28 02:28:35;;;;;;;;;;;16.90;99.90;;;18.33;100.00;100366.50;6202661;23;19928;-89
2021/06/28 02:31:04;;;;;;;;;;;16.90;99.90;;;18.37;100.00;100374.97;6175919;23;19904;-90
2021/06/28 02:33:31;;;;;;;;;;;16.80;99.90;;;18.27;100.00;100371.00;6201130;23;19904;-93
2021/06/28 02:35:57;;;;;;;;;;;16.80;99.90;;;18.26;100.00;100365.78;6173794;23;19962;-90
2021/06/28 02:38:23;;;;;;;;;;;16.80;99.90;;;18.22;100.00;100371.47;6200464;23;19923;-90
2021/06/28 02:40:51;;;;;;;;;;;16.70;99.90;;;18.16;100.00;100363.84;6201026;23;19904;-91
2021/06/28 02:43:18;;;;;;;;;;;16.80;99.90;;;18.24;100.00;100373.88;6175667;23;19927;-89
2021/06/28 02:45:44;;;;;;;;;;;16.70;99.90;;;18.24;100.00;100373.88;6199609;23;19920;-91
2021/06/28 02:48:10;;;;;;;;;;;16.70;99.90;;;18.23;100.00;100375.91;6172942;23;20197;-91
2021/06/28 02:50:37;;;;;;;;;;;16.70;99.90;;;18.24;100.00;100369.03;6199293;23;19960;-91
2021/06/28 02:53:04;;;;;;;;;;;16.80;99.90;;;18.25;100.00;100375.50;6198364;23;20291;-90
2021/06/28 02:55:30;;;;;;;;;;;16.70;99.90;;;18.17;100.00;100371.13;6172102;23;20230;-90
2021/06/28 02:57:56;;;;;;;;;;;16.70;99.90;;;18.16;100.00;100359.00;6174703;23;19904;-92
2021/06/28 03:00:24;;;;;;;;;;;16.70;99.90;;;18.18;100.00;100367.06;6173426;23;19926;-91
2021/06/28 03:02:50;;;;;;;;;;;16.70;99.90;;;18.23;100.00;100367.44;6172089;23;19944;-89
2021/06/28 03:05:16;;;;;;;;;;;16.70;99.90;;;18.29;100.00;100359.31;6199258;23;19904;-92
2021/06/28 03:07:42;;;;;;;;;;;16.80;99.90;;;18.32;100.00;100364.13;6177229;23;19934;-92
2021/06/28 03:10:13;;;;;;;;;;;16.80;99.90;;;18.33;100.00;100365.75;6200555;23;20331;-91
2021/06/28 03:12:40;;;;;;;;;;;16.80;99.90;;;18.30;100.00;100367.34;6178023;23;19911;-90
2021/06/28 03:15:15;;;;;;;;;;;16.90;99.90;;;18.32;100.00;100370.59;6204123;23;19930;-90
2021/06/28 03:17:42;;;;;;;;;;;16.80;99.90;;;18.24;100.00;100369.03;6180956;23;19927;-89
2021/06/28 03:20:12;;;;;;;;;;;16.80;99.90;;;18.19;100.00;100377.16;6182098;23;19907;-90
2021/06/28 03:22:40;;;;;;;;;;;16.70;99.90;;;18.13;100.00;100365.50;6180783;23;19908;-91
2021/06/28 03:25:10;;;;;;;;;;;16.60;99.90;;;18.10;100.00;100368.34;6180950;23;19931;-90
2021/06/28 03:27:36;;;;;;;;;;;16.60;99.90;;;18.08;100.00;100363.09;6181051;23;19904;-92
2021/06/28 03:30:10;;;;;;;;;;;16.60;99.90;;;18.06;100.00;100359.91;6206108;23;19914;-91
2021/06/28 03:32:36;;;;;;;;;;;16.60;99.90;;;18.12;100.00;100365.91;6205096;23;19993;-92
2021/06/28 03:35:03;;;;;;;;;;;16.70;99.90;;;18.04;100.00;100356.69;6203305;23;19908;-89
2021/06/28 03:37:29;;;;;;;;;;;16.60;99.90;;;18.02;100.00;100361.94;6179322;23;19935;-91
2021/06/28 03:39:55;;;;;;;;;;;16.50;99.90;;;17.98;100.00;100369.63;6210947;23;19900;-89
2021/06/28 03:42:21;;;;;;;;;;;16.60;99.90;;;18.00;100.00;100364.38;6185570;23;19913;-90
2021/06/28 03:44:46;;;;;;;;;;;16.40;99.90;;;18.03;100.00;100371.22;6201909;23;19915;-89
2021/06/28 03:47:15;;;;;;;;;;;16.50;99.90;;;18.05;100.00;100374.44;6171768;23;19911;-89
2021/06/28 03:49:40;;;;;;;;;;;16.50;99.90;;;18.03;100.00;100376.88;6196496;23;19911;-89
2021/06/28 03:52:06;;;;;;;;;;;16.50;99.90;;;18.00;100.00;100372.88;6194766;23;19904;-89
2021/06/28 03:54:32;;;;;;;;;;;16.50;99.90;;;18.03;100.00;100380.50;6198967;23;20346;-90
2021/06/28 03:57:00;;;;;;;;;;;16.50;99.90;;;18.04;100.00;100375.66;6180423;23;19919;-91
2021/06/28 03:59:26;;;;;;;;;;;16.50;99.90;;;18.02;100.00;100375.25;6181750;23;19904;-89
2021/06/28 04:01:53;;;;;;;;;;;16.50;99.90;;;18.05;100.00;100371.59;6207678;23;20214;-90
2021/06/28 04:04:20;;;;;;;;;;;16.50;99.90;;;18.05;100.00;100377.25;6182525;23;19919;-89
2021/06/28 04:06:45;;;;;;;;;;;16.50;99.90;;;18.08;100.00;100380.06;6204862;23;19904;-91
2021/06/28 04:09:11;;;;;;;;;;;16.60;99.90;;;18.12;100.00;100380.03;6200826;23;19904;-91
2021/06/28 04:11:37;;;;;;;;;;;16.50;99.90;;;18.15;100.00;100373.53;6173454;23;19904;-90
2021/06/28 04:14:04;;;;;;;;;;;16.60;99.90;;;18.17;100.00;100366.25;6172779;23;19919;-90
2021/06/28 04:16:30;;;;;;;;;;;16.60;99.90;;;18.22;100.00;100371.47;6170135;23;19950;-89
2021/06/28 04:18:57;;;;;;;;;;;16.60;99.90;;;18.29;100.00;100376.25;6194585;23;19904;-89
2021/06/28 04:21:22;;;;;;;;;;;16.70;99.90;;;18.33;100.00;100379.88;6169467;23;19979;-89
2021/06/28 04:23:49;;;;;;;;;;;16.80;99.90;;;18.39;100.00;100375.38;6169939;23;19951;-90
2021/06/28 04:26:15;;;;;;;;;;;16.80;99.90;;;18.41;100.00;100379.38;6167195;23;19938;-88
2021/06/28 04:28:41;;;;;;;;;;;16.90;99.90;;;18.44;100.00;100378.53;6192436;23;19908;-90
2021/06/28 04:31:07;;;;;;;;;;;16.90;99.90;;;18.52;100.00;100382.16;6191409;23;19904;-89
2021/06/28 04:33:33;;;;;;;;;;;16.90;99.90;;;18.58;100.00;100374.81;6208544;23;19920;-89
2021/06/28 04:35:59;;;;;;;;;;;17.00;99.90;;;18.73;100.00;100378.28;6179566;23;19936;-93
2021/06/28 04:38:25;;;;;;;;;;;17.10;99.90;;;18.86;100.00;100370.88;6193194;23;19920;-91
2021/06/28 04:40:52;;;;;;;;;;;17.20;99.90;;;19.01;100.00;100371.53;6193291;23;19904;-90
2021/06/28 04:43:17;;;;;;;;;;;17.40;99.90;;;19.12;100.00;100367.34;6192418;23;20000;-91
2021/06/28 04:45:43;;;;;;;;;;;17.40;99.90;;;19.30;100.00;100373.56;6166416;23;19904;-93
2021/06/28 04:48:09;;;;;;;;;;;17.50;99.90;;;19.46;100.00;100373.78;6190891;23;19904;-90
2021/06/28 04:50:35;;;;;;;;;;;17.70;99.90;;;19.64;100.00;100373.56;6191215;23;19911;-90
2021/06/28 04:53:01;;;;;;;;;;;17.80;99.90;;;19.83;100.00;100374.91;6190537;23;19904;-90
2021/06/28 04:55:27;;;;;;;;;;;18.00;99.90;;;19.99;100.00;100386.41;6193865;23;19958;-89
2021/06/28 04:57:55;;;;;;;;;;;18.10;99.90;;;20.11;100.00;100385.78;6192664;23;20188;-89
2021/06/28 05:00:24;;;;;;;;;;;18.30;99.90;;;20.24;100.00;100371.81;6169315;23;19973;-88
2021/06/28 05:02:50;;;;;;;;;;;18.30;99.90;;;20.39;100.00;100382.50;6165823;23;19942;-92
2021/06/28 05:05:17;;;;;;;;;;;18.50;99.90;;;20.58;100.00;100383.03;6164819;23;19904;-92
2021/06/28 05:07:44;;;;;;;;;;;18.60;99.90;;;20.72;100.00;100380.72;6188355;23;19904;-90
2021/06/28 05:10:15;;;;;;;;;;;18.70;99.90;;;20.93;99.47;100388.81;6190480;23;20328;-89
2021/06/28 05:12:41;;;;;;;;;;;18.90;99.90;;;21.03;98.36;100384.97;6165159;23;20239;-89
2021/06/28 05:15:09;;;;;;;;;;;19.00;99.90;;;21.17;97.90;100366.88;6164668;23;19904;-89
2021/06/28 05:17:35;;;;;;;;;;;19.10;99.90;;;21.41;96.90;100370.44;6166506;23;19943;-90
2021/06/28 05:20:06;;;;;;;;;;;19.30;99.90;;;21.60;95.65;100369.63;6166428;23;19904;-89
2021/06/28 05:22:34;;;;;;;;;;;19.50;99.90;;;21.79;94.30;100377.31;6190426;23;19904;-89
2021/06/28 05:25:00;;;;;;;;;;;19.60;99.90;;;21.95;93.35;100370.88;6169960;23;19912;-88
2021/06/28 05:27:26;;;;;;;;;;;19.90;99.90;;;22.13;91.99;100367.59;6191920;23;19904;-90
2021/06/28 05:29:55;;;;;;;;;;;20.00;99.90;;;22.30;90.36;100367.16;6164284;23;19916;-89
2021/06/28 05:32:26;;;;;;;;;;;20.20;99.90;;;22.46;88.33;100370.00;6199685;23;19919;-91
2021/06/28 05:34:53;;;;;;;;;;;20.40;99.90;;;22.65;87.58;100376.81;6178747;23;19908;-91
2021/06/28 05:37:20;;;;;;;;;;;20.60;99.90;;;22.80;87.09;100366.66;6179339;23;19908;-91
2021/06/28 05:39:47;;;;;;;;;;;20.70;99.90;;;22.85;85.88;100368.97;6176508;23;19931;-90
2021/06/28 05:42:13;;;;;;;;;;;20.80;99.90;;;23.03;85.58;100360.72;6168250;23;19904;-91
2021/06/28 05:44:40;;;;;;;;;;;20.90;99.90;;;23.32;84.66;100359.91;6171470;23;19948;-91
2021/06/28 05:47:08;;;;;;;;;;;21.10;99.90;;;23.51;83.00;100354.03;6171829;23;20402;-91
2021/06/28 05:49:37;;;;;;;;;;;21.30;99.90;;;23.36;82.66;100358.56;6174595;23;20128;-92
2021/06/28 05:52:05;;;;;;;;;;;21.30;99.90;;;23.11;83.07;100355.63;6200407;23;19904;-90
2021/06/28 05:54:31;;;;;;;;;;;21.10;99.90;;;22.86;83.98;100353.47;6169776;23;19904;-92
2021/06/28 05:56:57;;;;;;;;;;;20.90;99.90;;;22.65;84.52;100345.50;6189649;23;19909;-90
2021/06/28 05:59:23;;;;;;;;;;;20.80;99.90;;;22.45;85.63;100356.19;6164865;23;20004;-90
2021/06/28 06:01:49;;;;;;;;;;;20.60;99.90;;;22.40;86.70;100354.69;6187931;23;19986;-90
2021/06/28 06:04:15;;;;;;;;;;;20.50;99.90;;;22.54;87.42;100344.97;6192308;23;20234;-91
2021/06/28 06:06:42;;;;;;;;;;;20.60;99.90;;;22.54;87.36;100356.34;6190309;23;19947;-91
2021/06/28 06:09:08;;;;;;;;;;;20.60;99.90;;;22.49;87.48;100336.97;6168456;23;19908;-91
2021/06/28 06:11:33;;;;;;;;;;;20.60;99.90;;;22.56;86.91;100346.16;6171288;23;20238;-93
2021/06/28 06:14:00;;;;;;;;;;;20.70;99.90;;;22.83;86.43;100347.91;6171286;23;20353;-90
2021/06/28 06:16:25;;;;;;;;;;;20.80;99.90;;;22.83;85.43;100351.53;6165585;23;19908;-90
2021/06/28 06:18:53;;;;;;;;;;;20.80;99.90;;;22.75;85.79;100344.44;6173835;23;19915;-91
2021/06/28 06:21:23;;;;;;;;;;;20.80;99.90;;;22.86;85.38;100355.53;6175391;23;19928;-91
2021/06/28 06:23:52;;;;;;;;;;;20.90;99.90;;;23.14;84.61;100357.59;6175535;23;19927;-92
2021/06/28 06:26:19;;;;;;;;;;;21.00;99.90;;;23.39;82.95;100339.75;6194930;23;19904;-91
2021/06/28 07:53:55;;;;;;;;;;;24.70;99.90;;;27.64;63.34;100388.75;6105264;23;19909;-89
2021/06/28 07:58:11;;;;;;;;;;;;;;;;;;;;;
2021/06/28 08:13:20;;;;;;;;;;;26.90;99.90;;;29.43;57.99;100364.88;5927731;24;19918;-90
2021/06/28 09:44:46;;;;;;;;;;;;;;;;;;;;;
2021/06/28 09:48:55;;;;;;;;;;;28.50;99.90;;;30.69;49.87;100368.28;5833341;24;19940;-89
2021/06/28 10:10:13;;;;;;;;;;;29.20;99.90;;;32.38;45.42;100345.06;5895009;24;20269;-90
2021/06/28 10:22:07;;;;;;;;;;;;;;;;;;;;;
2021/06/28 10:26:04;;;;;;;;;;;30.70;94.60;;;32.69;44.89;100332.63;5846991;24;19912;-90
2021/06/28 10:30:08;;;;;;;;;;;;;;;;;;;;;
2021/06/28 10:34:00;;;;;;;;;;;;;;;;;;;;;
2021/06/28 10:37:48;;;;;;;;;;;;;;;;;;;;;
2021/06/28 10:41:46;;;;;;;;;;;;;;;;;;;;;
2021/06/28 10:45:49;;;;;;;;;;;31.40;85.90;;;33.25;42.17;100327.06;6129907;23;19908;-90
2021/06/28 10:49:37;;;;;;;;;;;;;;;;;;;;;
2021/06/28 10:53:46;;;;;;;;;;;;;;;;;;;;;
2021/06/28 11:02:01;;;;;;;;;;;;;;;;;;;;;
2021/06/28 11:13:51;;;;;;;;;;;30.00;88.80;;;30.81;46.04;100297.13;6011766;23;19934;-90
2021/06/28 11:17:27;;;;;;;;;;;;;;;;;;;;;
2021/06/28 11:33:41;;;;;;;;;;;28.80;99.90;;;31.40;46.04;100276.53;5873399;24;19965;-90
